sensor_id;sensor_type;location;lat;lon;timestamp;P1;durP1;ratioP1;P2;durP2;ratioP2
45224;SDS011;30963;48.696;8.764;2022-09-30T00:00:21;5.72;;;5.20;;
45224;SDS011;30963;48.696;8.764;2022-09-30T00:02:47;6.38;;;5.78;;
45224;SDS011;30963;48.696;8.764;2022-09-30T00:05:13;9.98;;;5.93;;
45224;SDS011;30963;48.696;8.764;2022-09-30T00:07:39;5.78;;;5.28;;
45224;SDS011;30963;48.696;8.764;2022-09-30T00:10:05;5.93;;;5.07;;
45224;SDS011;30963;48.696;8.764;2022-09-30T00:12:31;5.90;;;5.30;;
45224;SDS011;30963;48.696;8.764;2022-09-30T00:14:57;8.38;;;5.88;;
45224;SDS011;30963;48.696;8.764;2022-09-30T00:17:23;8.20;;;5.25;;
45224;SDS011;30963;48.696;8.764;2022-09-30T00:19:49;5.82;;;5.05;;
45224;SDS011;30963;48.696;8.764;2022-09-30T00:22:18;5.30;;;4.80;;
45224;SDS011;30963;48.696;8.764;2022-09-30T00:24:46;5.88;;;4.65;;
45224;SDS011;30963;48.696;8.764;2022-09-30T00:27:12;6.03;;;4.88;;
45224;SDS011;30963;48.696;8.764;2022-09-30T00:29:42;5.53;;;5.05;;
45224;SDS011;30963;48.696;8.764;2022-09-30T00:32:08;6.25;;;5.57;;
45224;SDS011;30963;48.696;8.764;2022-09-30T00:34:36;6.80;;;4.80;;
45224;SDS011;30963;48.696;8.764;2022-09-30T00:37:02;5.85;;;5.15;;
45224;SDS011;30963;48.696;8.764;2022-09-30T00:39:31;7.00;;;5.43;;
45224;SDS011;30963;48.696;8.764;2022-09-30T00:41:58;6.65;;;5.72;;
45224;SDS011;30963;48.696;8.764;2022-09-30T00:49:42;7.65;;;5.68;;
45224;SDS011;30963;48.696;8.764;2022-09-30T00:52:08;6.57;;;5.03;;
45224;SDS011;30963;48.696;8.764;2022-09-30T00:54:34;6.10;;;5.47;;
45224;SDS011;30963;48.696;8.764;2022-09-30T00:57:01;6.65;;;5.93;;
45224;SDS011;30963;48.696;8.764;2022-09-30T00:59:29;7.57;;;6.22;;
45224;SDS011;30963;48.696;8.764;2022-09-30T01:01:57;6.70;;;6.10;;
45224;SDS011;30963;48.696;8.764;2022-09-30T01:04:23;7.43;;;5.95;;
45224;SDS011;30963;48.696;8.764;2022-09-30T01:06:49;7.47;;;5.63;;
45224;SDS011;30963;48.696;8.764;2022-09-30T01:09:16;6.65;;;5.28;;
45224;SDS011;30963;48.696;8.764;2022-09-30T01:11:42;9.18;;;6.07;;
45224;SDS011;30963;48.696;8.764;2022-09-30T01:14:12;6.10;;;5.57;;
45224;SDS011;30963;48.696;8.764;2022-09-30T01:30:35;6.63;;;5.90;;
45224;SDS011;30963;48.696;8.764;2022-09-30T01:45:59;5.78;;;5.15;;
45224;SDS011;30963;48.696;8.764;2022-09-30T01:51:09;6.45;;;5.85;;
45224;SDS011;30963;48.696;8.764;2022-09-30T01:56:17;6.22;;;5.47;;
45224;SDS011;30963;48.696;8.764;2022-09-30T02:01:18;8.00;;;5.25;;
45224;SDS011;30963;48.696;8.764;2022-09-30T02:03:48;6.75;;;5.65;;
45224;SDS011;30963;48.696;8.764;2022-09-30T02:06:17;8.10;;;5.88;;
45224;SDS011;30963;48.696;8.764;2022-09-30T02:11:17;6.68;;;5.97;;
45224;SDS011;30963;48.696;8.764;2022-09-30T02:13:49;6.47;;;5.85;;
45224;SDS011;30963;48.696;8.764;2022-09-30T02:16:18;5.80;;;5.18;;
45224;SDS011;30963;48.696;8.764;2022-09-30T02:19:07;6.35;;;5.75;;
45224;SDS011;30963;48.696;8.764;2022-09-30T02:21:35;7.18;;;6.03;;
45224;SDS011;30963;48.696;8.764;2022-09-30T02:24:05;6.32;;;5.72;;
45224;SDS011;30963;48.696;8.764;2022-09-30T02:26:36;6.97;;;5.53;;
45224;SDS011;30963;48.696;8.764;2022-09-30T02:29:04;6.13;;;5.53;;
45224;SDS011;30963;48.696;8.764;2022-09-30T02:31:33;6.15;;;5.53;;
45224;SDS011;30963;48.696;8.764;2022-09-30T02:39:03;7.47;;;5.40;;
45224;SDS011;30963;48.696;8.764;2022-09-30T02:41:33;5.82;;;4.55;;
45224;SDS011;30963;48.696;8.764;2022-09-30T02:44:01;7.50;;;5.35;;
45224;SDS011;30963;48.696;8.764;2022-09-30T02:46:50;5.22;;;4.80;;
45224;SDS011;30963;48.696;8.764;2022-09-30T02:49:26;6.53;;;5.75;;
45224;SDS011;30963;48.696;8.764;2022-09-30T02:59:53;5.78;;;5.18;;
45224;SDS011;30963;48.696;8.764;2022-09-30T03:02:19;6.82;;;5.93;;
45224;SDS011;30963;48.696;8.764;2022-09-30T03:04:49;6.07;;;5.55;;
45224;SDS011;30963;48.696;8.764;2022-09-30T03:07:17;5.57;;;4.82;;
45224;SDS011;30963;48.696;8.764;2022-09-30T03:09:43;5.45;;;4.95;;
45224;SDS011;30963;48.696;8.764;2022-09-30T03:12:11;5.13;;;4.72;;
45224;SDS011;30963;48.696;8.764;2022-09-30T03:14:51;5.85;;;5.35;;
45224;SDS011;30963;48.696;8.764;2022-09-30T03:20:33;5.65;;;5.15;;
45224;SDS011;30963;48.696;8.764;2022-09-30T03:33:27;5.65;;;5.03;;
45224;SDS011;30963;48.696;8.764;2022-09-30T03:41:16;5.93;;;5.20;;
45224;SDS011;30963;48.696;8.764;2022-09-30T03:48:57;6.70;;;5.05;;
45224;SDS011;30963;48.696;8.764;2022-09-30T03:51:25;5.45;;;4.90;;
45224;SDS011;30963;48.696;8.764;2022-09-30T03:53:53;6.65;;;5.03;;
45224;SDS011;30963;48.696;8.764;2022-09-30T03:56:26;5.05;;;4.20;;
45224;SDS011;30963;48.696;8.764;2022-09-30T03:58:53;4.80;;;4.38;;
45224;SDS011;30963;48.696;8.764;2022-09-30T04:01:20;5.93;;;5.10;;
45224;SDS011;30963;48.696;8.764;2022-09-30T04:03:47;5.07;;;4.47;;
45224;SDS011;30963;48.696;8.764;2022-09-30T04:06:15;4.93;;;4.25;;
45224;SDS011;30963;48.696;8.764;2022-09-30T04:08:41;5.05;;;4.63;;
45224;SDS011;30963;48.696;8.764;2022-09-30T04:11:10;5.55;;;4.32;;
45224;SDS011;30963;48.696;8.764;2022-09-30T04:13:37;4.88;;;4.47;;
45224;SDS011;30963;48.696;8.764;2022-09-30T04:16:05;5.43;;;4.80;;
45224;SDS011;30963;48.696;8.764;2022-09-30T04:18:35;5.93;;;5.43;;
45224;SDS011;30963;48.696;8.764;2022-09-30T04:21:06;7.50;;;4.72;;
45224;SDS011;30963;48.696;8.764;2022-09-30T04:23:38;8.00;;;5.22;;
45224;SDS011;30963;48.696;8.764;2022-09-30T04:26:05;5.80;;;5.30;;
45224;SDS011;30963;48.696;8.764;2022-09-30T04:28:32;5.57;;;5.07;;
45224;SDS011;30963;48.696;8.764;2022-09-30T04:31:01;5.70;;;5.25;;
45224;SDS011;30963;48.696;8.764;2022-09-30T04:33:29;5.47;;;5.00;;
45224;SDS011;30963;48.696;8.764;2022-09-30T04:35:56;5.00;;;4.60;;
45224;SDS011;30963;48.696;8.764;2022-09-30T04:38:23;5.47;;;5.03;;
45224;SDS011;30963;48.696;8.764;2022-09-30T04:40:49;5.15;;;4.50;;
45224;SDS011;30963;48.696;8.764;2022-09-30T04:43:16;6.55;;;5.35;;
45224;SDS011;30963;48.696;8.764;2022-09-30T04:45:43;6.22;;;5.63;;
45224;SDS011;30963;48.696;8.764;2022-09-30T04:48:10;5.65;;;5.15;;
45224;SDS011;30963;48.696;8.764;2022-09-30T04:50:36;7.43;;;5.47;;
45224;SDS011;30963;48.696;8.764;2022-09-30T04:53:02;5.43;;;4.93;;
45224;SDS011;30963;48.696;8.764;2022-09-30T04:55:28;6.05;;;4.97;;
45224;SDS011;30963;48.696;8.764;2022-09-30T04:57:54;5.85;;;5.25;;
45224;SDS011;30963;48.696;8.764;2022-09-30T05:00:20;6.22;;;5.47;;
45224;SDS011;30963;48.696;8.764;2022-09-30T05:02:46;5.80;;;5.30;;
45224;SDS011;30963;48.696;8.764;2022-09-30T05:05:12;5.78;;;5.28;;
45224;SDS011;30963;48.696;8.764;2022-09-30T05:07:41;6.32;;;5.72;;
45224;SDS011;30963;48.696;8.764;2022-09-30T05:10:07;6.55;;;6.03;;
45224;SDS011;30963;48.696;8.764;2022-09-30T05:12:35;5.97;;;5.47;;
45224;SDS011;30963;48.696;8.764;2022-09-30T05:15:04;6.32;;;5.68;;
45224;SDS011;30963;48.696;8.764;2022-09-30T05:17:32;6.07;;;5.57;;
45224;SDS011;30963;48.696;8.764;2022-09-30T05:19:58;6.75;;;6.15;;
45224;SDS011;30963;48.696;8.764;2022-09-30T05:22:24;6.38;;;5.78;;
45224;SDS011;30963;48.696;8.764;2022-09-30T05:24:50;6.22;;;5.63;;
45224;SDS011;30963;48.696;8.764;2022-09-30T05:27:20;6.63;;;5.93;;
45224;SDS011;30963;48.696;8.764;2022-09-30T05:29:46;7.13;;;6.05;;
45224;SDS011;30963;48.696;8.764;2022-09-30T05:32:12;9.00;;;6.97;;
45224;SDS011;30963;48.696;8.764;2022-09-30T05:34:41;10.30;;;9.32;;
45224;SDS011;30963;48.696;8.764;2022-09-30T05:37:07;10.20;;;8.85;;
45224;SDS011;30963;48.696;8.764;2022-09-30T05:39:35;7.55;;;6.95;;
45224;SDS011;30963;48.696;8.764;2022-09-30T05:42:01;6.18;;;5.65;;
45224;SDS011;30963;48.696;8.764;2022-09-30T05:44:27;6.22;;;5.63;;
45224;SDS011;30963;48.696;8.764;2022-09-30T05:46:53;6.47;;;5.85;;
45224;SDS011;30963;48.696;8.764;2022-09-30T05:49:19;8.10;;;7.30;;
45224;SDS011;30963;48.696;8.764;2022-09-30T05:51:45;6.30;;;5.80;;
45224;SDS011;30963;48.696;8.764;2022-09-30T05:54:14;8.52;;;6.00;;
45224;SDS011;30963;48.696;8.764;2022-09-30T05:56:40;5.82;;;5.03;;
45224;SDS011;30963;48.696;8.764;2022-09-30T05:59:06;5.93;;;5.05;;
45224;SDS011;30963;48.696;8.764;2022-09-30T06:01:32;5.95;;;4.88;;
45224;SDS011;30963;48.696;8.764;2022-09-30T06:04:01;5.68;;;4.97;;
45224;SDS011;30963;48.696;8.764;2022-09-30T06:06:27;5.38;;;4.55;;
45224;SDS011;30963;48.696;8.764;2022-09-30T06:08:55;6.25;;;5.40;;
45224;SDS011;30963;48.696;8.764;2022-09-30T06:11:24;6.00;;;5.28;;
45224;SDS011;30963;48.696;8.764;2022-09-30T06:13:50;6.90;;;5.45;;
45224;SDS011;30963;48.696;8.764;2022-09-30T06:16:16;7.53;;;5.40;;
45224;SDS011;30963;48.696;8.764;2022-09-30T06:18:42;5.75;;;5.18;;
45224;SDS011;30963;48.696;8.764;2022-09-30T06:21:09;5.32;;;4.93;;
45224;SDS011;30963;48.696;8.764;2022-09-30T06:23:36;7.55;;;4.88;;
45224;SDS011;30963;48.696;8.764;2022-09-30T06:26:05;6.63;;;4.82;;
45224;SDS011;30963;48.696;8.764;2022-09-30T06:28:32;6.00;;;4.88;;
45224;SDS011;30963;48.696;8.764;2022-09-30T06:30:59;5.65;;;5.15;;
45224;SDS011;30963;48.696;8.764;2022-09-30T06:33:25;8.52;;;5.25;;
45224;SDS011;30963;48.696;8.764;2022-09-30T06:35:54;6.15;;;5.55;;
45224;SDS011;30963;48.696;8.764;2022-09-30T06:38:20;8.20;;;5.68;;
45224;SDS011;30963;48.696;8.764;2022-09-30T06:40:48;8.27;;;5.88;;
45224;SDS011;30963;48.696;8.764;2022-09-30T06:43:17;9.00;;;5.65;;
45224;SDS011;30963;48.696;8.764;2022-09-30T06:45:46;6.28;;;5.35;;
45224;SDS011;30963;48.696;8.764;2022-09-30T06:48:12;6.53;;;5.85;;
45224;SDS011;30963;48.696;8.764;2022-09-30T06:50:40;7.70;;;5.55;;
45224;SDS011;30963;48.696;8.764;2022-09-30T06:53:06;8.30;;;6.20;;
45224;SDS011;30963;48.696;8.764;2022-09-30T06:55:35;7.13;;;5.70;;
45224;SDS011;30963;48.696;8.764;2022-09-30T06:58:08;8.27;;;5.82;;
45224;SDS011;30963;48.696;8.764;2022-09-30T07:00:40;6.93;;;6.22;;
45224;SDS011;30963;48.696;8.764;2022-09-30T07:03:09;7.97;;;5.70;;
45224;SDS011;30963;48.696;8.764;2022-09-30T07:05:44;7.05;;;6.35;;
45224;SDS011;30963;48.696;8.764;2022-09-30T07:08:12;8.10;;;6.68;;
45224;SDS011;30963;48.696;8.764;2022-09-30T07:10:38;6.22;;;5.15;;
45224;SDS011;30963;48.696;8.764;2022-09-30T07:13:06;5.97;;;5.40;;
45224;SDS011;30963;48.696;8.764;2022-09-30T07:15:32;4.88;;;4.38;;
45224;SDS011;30963;48.696;8.764;2022-09-30T07:17:58;7.40;;;6.00;;
45224;SDS011;30963;48.696;8.764;2022-09-30T07:20:27;5.60;;;5.07;;
45224;SDS011;30963;48.696;8.764;2022-09-30T07:22:54;6.15;;;5.55;;
45224;SDS011;30963;48.696;8.764;2022-09-30T07:25:20;6.22;;;5.65;;
45224;SDS011;30963;48.696;8.764;2022-09-30T07:27:48;5.30;;;4.90;;
45224;SDS011;30963;48.696;8.764;2022-09-30T07:30:14;6.60;;;5.93;;
45224;SDS011;30963;48.696;8.764;2022-09-30T07:32:40;6.75;;;6.15;;
45224;SDS011;30963;48.696;8.764;2022-09-30T07:35:07;8.85;;;6.32;;
45224;SDS011;30963;48.696;8.764;2022-09-30T07:37:33;7.70;;;6.18;;
45224;SDS011;30963;48.696;8.764;2022-09-30T07:40:00;10.52;;;6.82;;
45224;SDS011;30963;48.696;8.764;2022-09-30T07:42:26;7.15;;;6.40;;
45224;SDS011;30963;48.696;8.764;2022-09-30T07:44:55;8.73;;;7.10;;
45224;SDS011;30963;48.696;8.764;2022-09-30T07:47:21;8.82;;;6.72;;
45224;SDS011;30963;48.696;8.764;2022-09-30T07:49:47;12.18;;;7.18;;
45224;SDS011;30963;48.696;8.764;2022-09-30T07:52:13;8.07;;;7.30;;
45224;SDS011;30963;48.696;8.764;2022-09-30T07:54:40;11.35;;;9.05;;
45224;SDS011;30963;48.696;8.764;2022-09-30T07:57:09;10.07;;;8.90;;
45224;SDS011;30963;48.696;8.764;2022-09-30T07:59:36;9.38;;;7.63;;
45224;SDS011;30963;48.696;8.764;2022-09-30T08:02:02;9.52;;;7.55;;
45224;SDS011;30963;48.696;8.764;2022-09-30T08:04:31;10.75;;;8.50;;
45224;SDS011;30963;48.696;8.764;2022-09-30T08:06:58;8.05;;;7.25;;
45224;SDS011;30963;48.696;8.764;2022-09-30T08:09:25;7.32;;;6.10;;
45224;SDS011;30963;48.696;8.764;2022-09-30T08:11:54;7.28;;;6.45;;
45224;SDS011;30963;48.696;8.764;2022-09-30T08:14:21;11.00;;;7.32;;
45224;SDS011;30963;48.696;8.764;2022-09-30T08:16:47;6.70;;;5.60;;
45224;SDS011;30963;48.696;8.764;2022-09-30T08:19:18;7.28;;;6.07;;
45224;SDS011;30963;48.696;8.764;2022-09-30T08:21:44;6.95;;;6.35;;
45224;SDS011;30963;48.696;8.764;2022-09-30T08:24:10;8.38;;;7.57;;
45224;SDS011;30963;48.696;8.764;2022-09-30T08:26:37;7.82;;;6.93;;
45224;SDS011;30963;48.696;8.764;2022-09-30T08:29:03;7.32;;;6.63;;
45224;SDS011;30963;48.696;8.764;2022-09-30T08:31:29;7.32;;;6.20;;
45224;SDS011;30963;48.696;8.764;2022-09-30T08:33:59;7.85;;;7.03;;
45224;SDS011;30963;48.696;8.764;2022-09-30T08:36:27;7.72;;;7.13;;
45224;SDS011;30963;48.696;8.764;2022-09-30T08:38:53;8.63;;;7.60;;
45224;SDS011;30963;48.696;8.764;2022-09-30T08:51:49;8.80;;;7.45;;
45224;SDS011;30963;48.696;8.764;2022-09-30T08:54:19;7.20;;;6.47;;
45224;SDS011;30963;48.696;8.764;2022-09-30T08:56:47;7.38;;;6.68;;
45224;SDS011;30963;48.696;8.764;2022-09-30T09:01:52;8.68;;;7.10;;
45224;SDS011;30963;48.696;8.764;2022-09-30T09:04:19;8.95;;;8.10;;
45224;SDS011;30963;48.696;8.764;2022-09-30T09:14:16;9.15;;;7.78;;
45224;SDS011;30963;48.696;8.764;2022-09-30T09:16:52;9.40;;;7.97;;
45224;SDS011;30963;48.696;8.764;2022-09-30T09:19:23;8.70;;;7.82;;
45224;SDS011;30963;48.696;8.764;2022-09-30T09:21:51;9.40;;;8.60;;
45224;SDS011;30963;48.696;8.764;2022-09-30T09:24:19;10.25;;;7.95;;
45224;SDS011;30963;48.696;8.764;2022-09-30T09:26:46;9.82;;;7.50;;
45224;SDS011;30963;48.696;8.764;2022-09-30T09:31:44;8.80;;;7.90;;
45224;SDS011;30963;48.696;8.764;2022-09-30T09:34:13;8.82;;;7.63;;
45224;SDS011;30963;48.696;8.764;2022-09-30T09:36:53;8.32;;;7.50;;
45224;SDS011;30963;48.696;8.764;2022-09-30T09:44:58;7.90;;;6.43;;
45224;SDS011;30963;48.696;8.764;2022-09-30T09:47:25;5.97;;;5.40;;
45224;SDS011;30963;48.696;8.764;2022-09-30T09:49:52;8.02;;;5.13;;
45224;SDS011;30963;48.696;8.764;2022-09-30T09:54:51;5.05;;;4.65;;
45224;SDS011;30963;48.696;8.764;2022-09-30T09:57:21;5.53;;;5.03;;
45224;SDS011;30963;48.696;8.764;2022-09-30T10:02:30;4.97;;;4.47;;
45224;SDS011;30963;48.696;8.764;2022-09-30T10:04:58;5.55;;;5.00;;
45224;SDS011;30963;48.696;8.764;2022-09-30T10:07:29;5.03;;;4.55;;
45224;SDS011;30963;48.696;8.764;2022-09-30T10:12:54;7.13;;;5.00;;
45224;SDS011;30963;48.696;8.764;2022-09-30T10:15:21;6.82;;;4.55;;
45224;SDS011;30963;48.696;8.764;2022-09-30T10:17:51;4.78;;;4.00;;
45224;SDS011;30963;48.696;8.764;2022-09-30T10:20:20;4.45;;;4.05;;
45224;SDS011;30963;48.696;8.764;2022-09-30T10:22:50;22.23;;;8.68;;
45224;SDS011;30963;48.696;8.764;2022-09-30T10:25:29;10.98;;;5.93;;
45224;SDS011;30963;48.696;8.764;2022-09-30T10:32:59;8.55;;;5.32;;
45224;SDS011;30963;48.696;8.764;2022-09-30T10:35:28;5.55;;;4.90;;
45224;SDS011;30963;48.696;8.764;2022-09-30T10:37:54;5.85;;;4.35;;
45224;SDS011;30963;48.696;8.764;2022-09-30T10:40:25;5.78;;;3.95;;
45224;SDS011;30963;48.696;8.764;2022-09-30T10:42:52;5.20;;;4.05;;
45224;SDS011;30963;48.696;8.764;2022-09-30T10:45:19;7.07;;;4.75;;
45224;SDS011;30963;48.696;8.764;2022-09-30T10:47:50;4.80;;;4.28;;
45224;SDS011;30963;48.696;8.764;2022-09-30T10:50:20;5.10;;;3.95;;
45224;SDS011;30963;48.696;8.764;2022-09-30T10:52:54;4.78;;;3.72;;
45224;SDS011;30963;48.696;8.764;2022-09-30T10:57:50;6.07;;;3.72;;
45224;SDS011;30963;48.696;8.764;2022-09-30T11:00:18;4.45;;;4.05;;
45224;SDS011;30963;48.696;8.764;2022-09-30T11:05:16;5.43;;;4.10;;
45224;SDS011;30963;48.696;8.764;2022-09-30T11:07:53;4.10;;;3.70;;
45224;SDS011;30963;48.696;8.764;2022-09-30T11:12:48;3.95;;;3.40;;
45224;SDS011;30963;48.696;8.764;2022-09-30T11:15:24;4.50;;;3.35;;
45224;SDS011;30963;48.696;8.764;2022-09-30T11:17:59;4.30;;;3.55;;
45224;SDS011;30963;48.696;8.764;2022-09-30T11:20:27;5.25;;;3.35;;
45224;SDS011;30963;48.696;8.764;2022-09-30T11:22:59;3.33;;;3.10;;
45224;SDS011;30963;48.696;8.764;2022-09-30T11:25:30;3.85;;;3.30;;
45224;SDS011;30963;48.696;8.764;2022-09-30T11:30:47;3.80;;;3.50;;
45224;SDS011;30963;48.696;8.764;2022-09-30T11:35:47;4.95;;;3.60;;
45224;SDS011;30963;48.696;8.764;2022-09-30T11:38:23;6.55;;;4.07;;
45224;SDS011;30963;48.696;8.764;2022-09-30T11:43:45;4.03;;;3.55;;
45224;SDS011;30963;48.696;8.764;2022-09-30T11:46:32;4.75;;;4.30;;
45224;SDS011;30963;48.696;8.764;2022-09-30T11:49:50;4.30;;;3.90;;
45224;SDS011;30963;48.696;8.764;2022-09-30T11:57:10;3.78;;;3.47;;
45224;SDS011;30963;48.696;8.764;2022-09-30T12:02:10;5.88;;;3.72;;
45224;SDS011;30963;48.696;8.764;2022-09-30T12:04:41;6.30;;;3.50;;
45224;SDS011;30963;48.696;8.764;2022-09-30T12:09:42;5.22;;;3.58;;
45224;SDS011;30963;48.696;8.764;2022-09-30T12:12:10;3.83;;;3.53;;
45224;SDS011;30963;48.696;8.764;2022-09-30T12:14:48;5.60;;;4.13;;
45224;SDS011;30963;48.696;8.764;2022-09-30T12:17:20;5.13;;;3.83;;
45224;SDS011;30963;48.696;8.764;2022-09-30T12:19:48;4.13;;;3.72;;
45224;SDS011;30963;48.696;8.764;2022-09-30T12:22:17;3.90;;;3.60;;
45224;SDS011;30963;48.696;8.764;2022-09-30T12:24:47;4.00;;;3.67;;
45224;SDS011;30963;48.696;8.764;2022-09-30T12:27:14;5.00;;;3.70;;
45224;SDS011;30963;48.696;8.764;2022-09-30T12:29:42;4.63;;;3.65;;
45224;SDS011;30963;48.696;8.764;2022-09-30T12:48:10;5.25;;;4.10;;
45224;SDS011;30963;48.696;8.764;2022-09-30T12:50:43;3.83;;;3.47;;
45224;SDS011;30963;48.696;8.764;2022-09-30T12:53:14;4.47;;;3.20;;
45224;SDS011;30963;48.696;8.764;2022-09-30T12:55:44;3.75;;;3.40;;
45224;SDS011;30963;48.696;8.764;2022-09-30T12:58:17;4.15;;;3.80;;
45224;SDS011;30963;48.696;8.764;2022-09-30T13:00:56;4.85;;;3.30;;
45224;SDS011;30963;48.696;8.764;2022-09-30T13:03:24;3.97;;;3.67;;
45224;SDS011;30963;48.696;8.764;2022-09-30T13:05:51;3.40;;;3.20;;
45224;SDS011;30963;48.696;8.764;2022-09-30T13:10:44;6.35;;;4.22;;
45224;SDS011;30963;48.696;8.764;2022-09-30T13:13:23;5.53;;;3.70;;
45224;SDS011;30963;48.696;8.764;2022-09-30T13:15:50;3.95;;;3.50;;
45224;SDS011;30963;48.696;8.764;2022-09-30T13:23:38;3.40;;;3.17;;
45224;SDS011;30963;48.696;8.764;2022-09-30T13:28:49;5.45;;;3.60;;
45224;SDS011;30963;48.696;8.764;2022-09-30T13:31:16;3.17;;;2.97;;
45224;SDS011;30963;48.696;8.764;2022-09-30T13:33:47;4.22;;;3.47;;
45224;SDS011;30963;48.696;8.764;2022-09-30T13:41:47;3.80;;;3.10;;
45224;SDS011;30963;48.696;8.764;2022-09-30T13:44:15;3.05;;;2.85;;
45224;SDS011;30963;48.696;8.764;2022-09-30T13:46:48;3.30;;;3.10;;
45224;SDS011;30963;48.696;8.764;2022-09-30T13:49:24;3.05;;;2.75;;
45224;SDS011;30963;48.696;8.764;2022-09-30T13:51:55;2.90;;;2.60;;
45224;SDS011;30963;48.696;8.764;2022-09-30T13:56:55;3.03;;;2.75;;
45224;SDS011;30963;48.696;8.764;2022-09-30T14:12:25;2.83;;;2.63;;
45224;SDS011;30963;48.696;8.764;2022-09-30T14:15:05;2.60;;;2.40;;
45224;SDS011;30963;48.696;8.764;2022-09-30T14:17:46;3.17;;;2.70;;
45224;SDS011;30963;48.696;8.764;2022-09-30T14:20:17;4.13;;;3.30;;
45224;SDS011;30963;48.696;8.764;2022-09-30T14:22:48;3.60;;;3.08;;
45224;SDS011;30963;48.696;8.764;2022-09-30T14:25:15;3.00;;;2.70;;
45224;SDS011;30963;48.696;8.764;2022-09-30T14:28:02;2.88;;;2.65;;
45224;SDS011;30963;48.696;8.764;2022-09-30T14:30:31;4.28;;;3.03;;
45224;SDS011;30963;48.696;8.764;2022-09-30T14:33:00;4.00;;;3.28;;
45224;SDS011;30963;48.696;8.764;2022-09-30T14:35:33;3.08;;;2.78;;
45224;SDS011;30963;48.696;8.764;2022-09-30T14:38:04;3.45;;;3.15;;
45224;SDS011;30963;48.696;8.764;2022-09-30T14:40:32;3.00;;;2.70;;
45224;SDS011;30963;48.696;8.764;2022-09-30T14:42:59;3.45;;;3.20;;
45224;SDS011;30963;48.696;8.764;2022-09-30T14:45:28;3.85;;;3.30;;
45224;SDS011;30963;48.696;8.764;2022-09-30T14:47:56;3.78;;;3.30;;
45224;SDS011;30963;48.696;8.764;2022-09-30T14:50:24;4.18;;;3.78;;
45224;SDS011;30963;48.696;8.764;2022-09-30T14:52:51;3.13;;;2.83;;
45224;SDS011;30963;48.696;8.764;2022-09-30T14:55:22;6.95;;;3.80;;
45224;SDS011;30963;48.696;8.764;2022-09-30T14:57:50;3.28;;;2.97;;
45224;SDS011;30963;48.696;8.764;2022-09-30T15:00:20;4.13;;;3.53;;
45224;SDS011;30963;48.696;8.764;2022-09-30T15:02:47;4.95;;;3.53;;
45224;SDS011;30963;48.696;8.764;2022-09-30T15:05:13;3.67;;;3.38;;
45224;SDS011;30963;48.696;8.764;2022-09-30T15:07:41;3.67;;;3.38;;
45224;SDS011;30963;48.696;8.764;2022-09-30T15:10:13;4.28;;;3.88;;
45224;SDS011;30963;48.696;8.764;2022-09-30T15:12:41;3.45;;;3.13;;
45224;SDS011;30963;48.696;8.764;2022-09-30T15:15:31;3.50;;;3.20;;
45224;SDS011;30963;48.696;8.764;2022-09-30T15:17:58;3.65;;;3.13;;
45224;SDS011;30963;48.696;8.764;2022-09-30T15:22:53;3.08;;;2.80;;
45224;SDS011;30963;48.696;8.764;2022-09-30T15:25:19;3.30;;;3.08;;
45224;SDS011;30963;48.696;8.764;2022-09-30T15:27:46;3.25;;;2.90;;
45224;SDS011;30963;48.696;8.764;2022-09-30T15:32:42;3.40;;;3.08;;
45224;SDS011;30963;48.696;8.764;2022-09-30T15:35:14;3.50;;;3.00;;
45224;SDS011;30963;48.696;8.764;2022-09-30T15:37:40;3.58;;;2.70;;
45224;SDS011;30963;48.696;8.764;2022-09-30T15:40:17;3.58;;;3.10;;
45224;SDS011;30963;48.696;8.764;2022-09-30T15:43:06;3.10;;;2.80;;
45224;SDS011;30963;48.696;8.764;2022-09-30T15:45:39;3.38;;;3.08;;
45224;SDS011;30963;48.696;8.764;2022-09-30T15:50:52;4.63;;;2.83;;
45224;SDS011;30963;48.696;8.764;2022-09-30T15:55:56;5.00;;;2.97;;
45224;SDS011;30963;48.696;8.764;2022-09-30T16:00:52;3.53;;;2.60;;
45224;SDS011;30963;48.696;8.764;2022-09-30T16:03:25;2.95;;;2.70;;
45224;SDS011;30963;48.696;8.764;2022-09-30T16:05:55;3.70;;;3.00;;
45224;SDS011;30963;48.696;8.764;2022-09-30T16:08:29;5.13;;;3.35;;
45224;SDS011;30963;48.696;8.764;2022-09-30T16:10:57;3.00;;;2.80;;
45224;SDS011;30963;48.696;8.764;2022-09-30T16:13:25;2.95;;;2.75;;
45224;SDS011;30963;48.696;8.764;2022-09-30T16:15:52;3.20;;;2.90;;
45224;SDS011;30963;48.696;8.764;2022-09-30T16:18:20;3.40;;;3.10;;
45224;SDS011;30963;48.696;8.764;2022-09-30T16:20:55;7.50;;;3.95;;
45224;SDS011;30963;48.696;8.764;2022-09-30T16:23:26;7.50;;;3.97;;
45224;SDS011;30963;48.696;8.764;2022-09-30T16:26:10;5.18;;;4.53;;
45224;SDS011;30963;48.696;8.764;2022-09-30T16:28:36;5.28;;;3.90;;
45224;SDS011;30963;48.696;8.764;2022-09-30T16:31:04;4.60;;;4.30;;
45224;SDS011;30963;48.696;8.764;2022-09-30T16:33:31;5.25;;;4.75;;
45224;SDS011;30963;48.696;8.764;2022-09-30T16:36:03;5.38;;;4.65;;
45224;SDS011;30963;48.696;8.764;2022-09-30T16:38:29;6.63;;;4.55;;
45224;SDS011;30963;48.696;8.764;2022-09-30T16:40:55;6.28;;;4.93;;
45224;SDS011;30963;48.696;8.764;2022-09-30T16:43:24;5.35;;;4.72;;
45224;SDS011;30963;48.696;8.764;2022-09-30T16:45:51;7.82;;;5.15;;
45224;SDS011;30963;48.696;8.764;2022-09-30T16:48:17;5.80;;;4.97;;
45224;SDS011;30963;48.696;8.764;2022-09-30T16:50:48;6.00;;;4.75;;
45224;SDS011;30963;48.696;8.764;2022-09-30T16:53:15;7.75;;;5.72;;
45224;SDS011;30963;48.696;8.764;2022-09-30T16:55:44;6.65;;;5.53;;
45224;SDS011;30963;48.696;8.764;2022-09-30T16:58:12;6.75;;;5.30;;
45224;SDS011;30963;48.696;8.764;2022-09-30T17:00:41;8.35;;;5.43;;
45224;SDS011;30963;48.696;8.764;2022-09-30T17:03:10;5.68;;;5.15;;
45224;SDS011;30963;48.696;8.764;2022-09-30T17:05:38;5.22;;;4.63;;
45224;SDS011;30963;48.696;8.764;2022-09-30T17:08:07;7.13;;;4.80;;
45224;SDS011;30963;48.696;8.764;2022-09-30T17:10:36;5.00;;;4.63;;
45224;SDS011;30963;48.696;8.764;2022-09-30T17:13:02;5.85;;;4.45;;
45224;SDS011;30963;48.696;8.764;2022-09-30T17:15:31;4.60;;;4.03;;
45224;SDS011;30963;48.696;8.764;2022-09-30T17:17:59;4.78;;;4.28;;
45224;SDS011;30963;48.696;8.764;2022-09-30T17:20:28;5.20;;;4.45;;
45224;SDS011;30963;48.696;8.764;2022-09-30T17:22:56;5.95;;;4.07;;
45224;SDS011;30963;48.696;8.764;2022-09-30T17:25:22;5.53;;;4.97;;
45224;SDS011;30963;48.696;8.764;2022-09-30T17:27:51;5.45;;;4.65;;
45224;SDS011;30963;48.696;8.764;2022-09-30T17:30:18;5.38;;;4.88;;
45224;SDS011;30963;48.696;8.764;2022-09-30T17:32:46;5.65;;;5.07;;
45224;SDS011;30963;48.696;8.764;2022-09-30T17:35:12;8.35;;;5.07;;
45224;SDS011;30963;48.696;8.764;2022-09-30T17:37:38;6.80;;;4.97;;
45224;SDS011;30963;48.696;8.764;2022-09-30T17:40:05;6.15;;;4.88;;
45224;SDS011;30963;48.696;8.764;2022-09-30T17:42:53;5.40;;;4.90;;
45224;SDS011;30963;48.696;8.764;2022-09-30T17:45:35;6.15;;;5.55;;
45224;SDS011;30963;48.696;8.764;2022-09-30T17:48:02;5.80;;;5.22;;
45224;SDS011;30963;48.696;8.764;2022-09-30T17:50:30;8.57;;;6.10;;
45224;SDS011;30963;48.696;8.764;2022-09-30T17:52:55;7.78;;;6.65;;
45224;SDS011;30963;48.696;8.764;2022-09-30T17:55:21;8.63;;;6.43;;
45224;SDS011;30963;48.696;8.764;2022-09-30T17:57:48;7.13;;;6.07;;
45224;SDS011;30963;48.696;8.764;2022-09-30T18:00:17;6.82;;;6.22;;
45224;SDS011;30963;48.696;8.764;2022-09-30T18:02:48;8.10;;;6.50;;
45224;SDS011;30963;48.696;8.764;2022-09-30T18:05:18;7.38;;;6.55;;
45224;SDS011;30963;48.696;8.764;2022-09-30T18:07:46;8.18;;;6.95;;
45224;SDS011;30963;48.696;8.764;2022-09-30T18:10:12;8.38;;;7.57;;
45224;SDS011;30963;48.696;8.764;2022-09-30T18:12:38;9.52;;;7.05;;
45224;SDS011;30963;48.696;8.764;2022-09-30T18:15:05;8.63;;;7.60;;
45224;SDS011;30963;48.696;8.764;2022-09-30T18:17:31;8.35;;;7.55;;
45224;SDS011;30963;48.696;8.764;2022-09-30T18:19:57;7.50;;;6.70;;
45224;SDS011;30963;48.696;8.764;2022-09-30T18:22:23;7.05;;;6.45;;
45224;SDS011;30963;48.696;8.764;2022-09-30T18:24:49;7.18;;;6.28;;